sensor_id;sensor_type;location;lat;lon;timestamp;P1;durP1;ratioP1;P2;durP2;ratioP2
9214;SDS011;4642;51.364;6.788;2022-11-21T00:00:29;23.73;;;15.30;;
9214;SDS011;4642;51.364;6.788;2022-11-21T00:02:58;24.37;;;15.27;;
9214;SDS011;4642;51.364;6.788;2022-11-21T00:05:28;23.17;;;15.00;;
9214;SDS011;4642;51.364;6.788;2022-11-21T00:07:55;28.67;;;15.70;;
9214;SDS011;4642;51.364;6.788;2022-11-21T00:10:21;26.50;;;15.50;;
9214;SDS011;4642;51.364;6.788;2022-11-21T00:12:51;27.00;;;15.40;;
9214;SDS011;4642;51.364;6.788;2022-11-21T00:15:17;26.00;;;14.97;;
9214;SDS011;4642;51.364;6.788;2022-11-21T00:17:43;29.23;;;16.87;;
9214;SDS011;4642;51.364;6.788;2022-11-21T00:20:09;28.30;;;15.93;;
9214;SDS011;4642;51.364;6.788;2022-11-21T00:22:34;29.93;;;16.60;;
9214;SDS011;4642;51.364;6.788;2022-11-21T00:25:00;30.00;;;16.40;;
9214;SDS011;4642;51.364;6.788;2022-11-21T00:27:25;31.63;;;16.57;;
9214;SDS011;4642;51.364;6.788;2022-11-21T00:29:51;30.33;;;16.07;;
9214;SDS011;4642;51.364;6.788;2022-11-21T00:32:16;32.10;;;16.30;;
9214;SDS011;4642;51.364;6.788;2022-11-21T00:34:42;34.67;;;18.07;;
9214;SDS011;4642;51.364;6.788;2022-11-21T00:37:07;36.37;;;18.63;;
9214;SDS011;4642;51.364;6.788;2022-11-21T00:39:33;35.50;;;18.70;;
9214;SDS011;4642;51.364;6.788;2022-11-21T00:41:59;39.37;;;19.53;;
9214;SDS011;4642;51.364;6.788;2022-11-21T00:44:25;36.50;;;19.13;;
9214;SDS011;4642;51.364;6.788;2022-11-21T00:46:50;43.70;;;21.43;;
9214;SDS011;4642;51.364;6.788;2022-11-21T00:49:16;35.47;;;19.50;;
9214;SDS011;4642;51.364;6.788;2022-11-21T00:51:41;39.47;;;20.17;;
9214;SDS011;4642;51.364;6.788;2022-11-21T00:54:07;44.40;;;21.37;;
9214;SDS011;4642;51.364;6.788;2022-11-21T00:56:33;44.90;;;23.30;;
9214;SDS011;4642;51.364;6.788;2022-11-21T00:58:58;48.17;;;23.07;;
9214;SDS011;4642;51.364;6.788;2022-11-21T01:01:24;45.60;;;24.00;;
9214;SDS011;4642;51.364;6.788;2022-11-21T01:03:49;48.23;;;22.40;;
9214;SDS011;4642;51.364;6.788;2022-11-21T01:06:15;48.00;;;24.63;;
9214;SDS011;4642;51.364;6.788;2022-11-21T01:08:41;48.60;;;24.70;;
9214;SDS011;4642;51.364;6.788;2022-11-21T01:11:09;51.07;;;24.10;;
9214;SDS011;4642;51.364;6.788;2022-11-21T01:13:36;53.23;;;25.00;;
9214;SDS011;4642;51.364;6.788;2022-11-21T01:16:12;50.67;;;25.27;;
9214;SDS011;4642;51.364;6.788;2022-11-21T01:18:40;46.67;;;25.73;;
9214;SDS011;4642;51.364;6.788;2022-11-21T01:21:07;51.27;;;24.33;;
9214;SDS011;4642;51.364;6.788;2022-11-21T01:23:40;48.30;;;24.80;;
9214;SDS011;4642;51.364;6.788;2022-11-21T01:26:13;43.23;;;23.23;;
9214;SDS011;4642;51.364;6.788;2022-11-21T01:28:40;48.50;;;24.37;;
9214;SDS011;4642;51.364;6.788;2022-11-21T01:31:07;50.60;;;24.20;;
9214;SDS011;4642;51.364;6.788;2022-11-21T01:33:38;48.93;;;24.57;;
9214;SDS011;4642;51.364;6.788;2022-11-21T01:36:08;41.33;;;21.90;;
9214;SDS011;4642;51.364;6.788;2022-11-21T01:38:37;41.73;;;23.03;;
9214;SDS011;4642;51.364;6.788;2022-11-21T01:41:04;45.40;;;21.80;;
9214;SDS011;4642;51.364;6.788;2022-11-21T01:43:30;35.53;;;20.60;;
9214;SDS011;4642;51.364;6.788;2022-11-21T01:45:56;37.23;;;20.77;;
9214;SDS011;4642;51.364;6.788;2022-11-21T01:53:58;36.33;;;20.50;;
9214;SDS011;4642;51.364;6.788;2022-11-21T02:02:15;34.03;;;19.13;;
9214;SDS011;4642;51.364;6.788;2022-11-21T02:04:44;37.20;;;20.03;;
9214;SDS011;4642;51.364;6.788;2022-11-21T02:07:10;36.73;;;19.67;;
9214;SDS011;4642;51.364;6.788;2022-11-21T02:09:40;31.57;;;18.70;;
9214;SDS011;4642;51.364;6.788;2022-11-21T02:12:14;34.97;;;19.33;;
9214;SDS011;4642;51.364;6.788;2022-11-21T02:14:46;38.27;;;20.03;;
9214;SDS011;4642;51.364;6.788;2022-11-21T02:17:12;37.27;;;19.93;;
9214;SDS011;4642;51.364;6.788;2022-11-21T02:22:26;41.80;;;21.63;;
9214;SDS011;4642;51.364;6.788;2022-11-21T02:25:07;37.67;;;20.47;;
9214;SDS011;4642;51.364;6.788;2022-11-21T02:27:36;43.17;;;21.03;;
9214;SDS011;4642;51.364;6.788;2022-11-21T02:30:03;40.60;;;20.73;;
9214;SDS011;4642;51.364;6.788;2022-11-21T02:32:41;36.13;;;20.40;;
9214;SDS011;4642;51.364;6.788;2022-11-21T02:35:13;36.43;;;19.57;;
9214;SDS011;4642;51.364;6.788;2022-11-21T02:37:40;33.87;;;19.87;;
9214;SDS011;4642;51.364;6.788;2022-11-21T02:40:12;36.30;;;20.70;;
9214;SDS011;4642;51.364;6.788;2022-11-21T02:42:44;41.23;;;20.80;;
9214;SDS011;4642;51.364;6.788;2022-11-21T02:51:12;39.67;;;19.33;;
9214;SDS011;4642;51.364;6.788;2022-11-21T02:53:38;39.30;;;20.80;;
9214;SDS011;4642;51.364;6.788;2022-11-21T02:56:03;38.83;;;20.57;;
9214;SDS011;4642;51.364;6.788;2022-11-21T02:58:29;39.90;;;19.80;;
9214;SDS011;4642;51.364;6.788;2022-11-21T03:00:55;38.17;;;22.00;;
9214;SDS011;4642;51.364;6.788;2022-11-21T03:03:20;40.47;;;20.70;;
9214;SDS011;4642;51.364;6.788;2022-11-21T03:05:46;36.93;;;19.70;;
9214;SDS011;4642;51.364;6.788;2022-11-21T03:08:12;34.97;;;19.97;;
9214;SDS011;4642;51.364;6.788;2022-11-21T03:10:38;41.37;;;20.53;;
9214;SDS011;4642;51.364;6.788;2022-11-21T03:13:03;37.07;;;21.07;;
9214;SDS011;4642;51.364;6.788;2022-11-21T03:15:30;39.20;;;21.37;;
9214;SDS011;4642;51.364;6.788;2022-11-21T03:17:57;42.13;;;21.83;;
9214;SDS011;4642;51.364;6.788;2022-11-21T03:20:25;43.57;;;21.90;;
9214;SDS011;4642;51.364;6.788;2022-11-21T03:22:50;41.53;;;21.10;;
9214;SDS011;4642;51.364;6.788;2022-11-21T03:25:17;41.80;;;21.60;;
9214;SDS011;4642;51.364;6.788;2022-11-21T03:27:44;37.73;;;20.43;;
9214;SDS011;4642;51.364;6.788;2022-11-21T03:30:09;44.87;;;21.00;;
9214;SDS011;4642;51.364;6.788;2022-11-21T03:32:35;40.73;;;19.43;;
9214;SDS011;4642;51.364;6.788;2022-11-21T03:35:01;41.80;;;19.20;;
9214;SDS011;4642;51.364;6.788;2022-11-21T03:37:26;44.37;;;20.83;;
9214;SDS011;4642;51.364;6.788;2022-11-21T03:39:52;46.87;;;19.50;;
9214;SDS011;4642;51.364;6.788;2022-11-21T03:42:17;43.20;;;19.40;;
9214;SDS011;4642;51.364;6.788;2022-11-21T03:44:43;46.83;;;20.10;;
9214;SDS011;4642;51.364;6.788;2022-11-21T03:47:08;42.00;;;19.77;;
9214;SDS011;4642;51.364;6.788;2022-11-21T03:49:34;37.57;;;19.13;;
9214;SDS011;4642;51.364;6.788;2022-11-21T03:51:59;42.93;;;19.83;;
9214;SDS011;4642;51.364;6.788;2022-11-21T03:54:25;53.77;;;23.13;;
9214;SDS011;4642;51.364;6.788;2022-11-21T03:56:50;48.67;;;22.00;;
9214;SDS011;4642;51.364;6.788;2022-11-21T03:59:16;45.87;;;23.13;;
9214;SDS011;4642;51.364;6.788;2022-11-21T04:01:41;50.30;;;23.20;;
9214;SDS011;4642;51.364;6.788;2022-11-21T04:04:07;52.03;;;22.17;;
9214;SDS011;4642;51.364;6.788;2022-11-21T04:06:32;53.60;;;21.97;;
9214;SDS011;4642;51.364;6.788;2022-11-21T04:08:58;54.97;;;23.07;;
9214;SDS011;4642;51.364;6.788;2022-11-21T04:11:23;47.80;;;20.87;;
9214;SDS011;4642;51.364;6.788;2022-11-21T04:13:52;49.83;;;20.87;;
9214;SDS011;4642;51.364;6.788;2022-11-21T04:16:17;47.40;;;21.10;;
9214;SDS011;4642;51.364;6.788;2022-11-21T04:18:43;47.97;;;20.67;;
9214;SDS011;4642;51.364;6.788;2022-11-21T04:21:08;47.70;;;20.07;;
9214;SDS011;4642;51.364;6.788;2022-11-21T04:23:34;45.83;;;19.90;;
9214;SDS011;4642;51.364;6.788;2022-11-21T04:26:00;53.27;;;21.17;;
9214;SDS011;4642;51.364;6.788;2022-11-21T04:28:26;43.17;;;19.70;;
9214;SDS011;4642;51.364;6.788;2022-11-21T04:30:51;45.07;;;18.83;;
9214;SDS011;4642;51.364;6.788;2022-11-21T04:33:17;45.67;;;19.40;;
9214;SDS011;4642;51.364;6.788;2022-11-21T04:35:43;47.63;;;20.17;;
9214;SDS011;4642;51.364;6.788;2022-11-21T04:38:10;44.40;;;18.57;;
9214;SDS011;4642;51.364;6.788;2022-11-21T04:40:36;44.17;;;19.10;;
9214;SDS011;4642;51.364;6.788;2022-11-21T04:43:02;37.10;;;17.03;;
9214;SDS011;4642;51.364;6.788;2022-11-21T04:45:28;40.60;;;18.27;;
9214;SDS011;4642;51.364;6.788;2022-11-21T04:47:54;40.87;;;18.07;;
9214;SDS011;4642;51.364;6.788;2022-11-21T04:50:19;39.87;;;18.80;;
9214;SDS011;4642;51.364;6.788;2022-11-21T04:52:52;39.40;;;17.97;;
9214;SDS011;4642;51.364;6.788;2022-11-21T04:55:19;41.30;;;17.97;;
9214;SDS011;4642;51.364;6.788;2022-11-21T04:57:46;41.83;;;18.93;;
9214;SDS011;4642;51.364;6.788;2022-11-21T05:00:12;44.20;;;19.17;;
9214;SDS011;4642;51.364;6.788;2022-11-21T05:02:39;41.90;;;17.70;;
9214;SDS011;4642;51.364;6.788;2022-11-21T05:05:04;41.70;;;19.13;;
9214;SDS011;4642;51.364;6.788;2022-11-21T05:07:30;37.47;;;17.90;;
9214;SDS011;4642;51.364;6.788;2022-11-21T05:09:56;40.77;;;18.23;;
9214;SDS011;4642;51.364;6.788;2022-11-21T05:12:21;43.33;;;18.50;;
9214;SDS011;4642;51.364;6.788;2022-11-21T05:15:05;45.40;;;18.07;;
9214;SDS011;4642;51.364;6.788;2022-11-21T05:17:31;48.23;;;18.50;;
9214;SDS011;4642;51.364;6.788;2022-11-21T05:19:57;43.37;;;19.13;;
9214;SDS011;4642;51.364;6.788;2022-11-21T05:22:22;44.93;;;18.73;;
9214;SDS011;4642;51.364;6.788;2022-11-21T05:24:48;35.97;;;17.73;;
9214;SDS011;4642;51.364;6.788;2022-11-21T05:27:13;42.23;;;19.43;;
9214;SDS011;4642;51.364;6.788;2022-11-21T05:29:39;38.30;;;17.87;;
9214;SDS011;4642;51.364;6.788;2022-11-21T05:32:04;51.07;;;19.23;;
9214;SDS011;4642;51.364;6.788;2022-11-21T05:34:30;39.17;;;17.57;;
9214;SDS011;4642;51.364;6.788;2022-11-21T05:36:55;43.23;;;18.80;;
9214;SDS011;4642;51.364;6.788;2022-11-21T05:39:24;41.27;;;18.27;;
9214;SDS011;4642;51.364;6.788;2022-11-21T05:41:49;42.00;;;17.87;;
9214;SDS011;4642;51.364;6.788;2022-11-21T05:44:15;46.73;;;18.63;;
9214;SDS011;4642;51.364;6.788;2022-11-21T05:46:41;48.73;;;20.03;;
9214;SDS011;4642;51.364;6.788;2022-11-21T05:49:07;47.67;;;19.63;;
9214;SDS011;4642;51.364;6.788;2022-11-21T05:51:32;41.50;;;18.07;;
9214;SDS011;4642;51.364;6.788;2022-11-21T05:53:58;52.93;;;20.10;;
9214;SDS011;4642;51.364;6.788;2022-11-21T05:56:24;50.27;;;19.17;;
9214;SDS011;4642;51.364;6.788;2022-11-21T05:58:50;47.43;;;19.47;;
9214;SDS011;4642;51.364;6.788;2022-11-21T06:01:15;45.30;;;19.60;;
9214;SDS011;4642;51.364;6.788;2022-11-21T06:04:01;48.00;;;19.20;;
9214;SDS011;4642;51.364;6.788;2022-11-21T06:06:27;49.93;;;19.73;;
9214;SDS011;4642;51.364;6.788;2022-11-21T06:08:52;46.53;;;20.20;;
9214;SDS011;4642;51.364;6.788;2022-11-21T06:11:18;49.03;;;19.73;;
9214;SDS011;4642;51.364;6.788;2022-11-21T06:13:43;46.07;;;19.23;;
9214;SDS011;4642;51.364;6.788;2022-11-21T06:16:10;53.80;;;20.20;;
9214;SDS011;4642;51.364;6.788;2022-11-21T06:18:38;46.00;;;20.07;;
9214;SDS011;4642;51.364;6.788;2022-11-21T06:23:37;42.87;;;19.90;;
9214;SDS011;4642;51.364;6.788;2022-11-21T06:26:04;49.17;;;18.60;;
9214;SDS011;4642;51.364;6.788;2022-11-21T06:28:32;48.87;;;19.90;;
9214;SDS011;4642;51.364;6.788;2022-11-21T06:31:05;53.23;;;19.90;;
9214;SDS011;4642;51.364;6.788;2022-11-21T06:33:32;44.37;;;18.93;;
9214;SDS011;4642;51.364;6.788;2022-11-21T06:36:00;43.87;;;19.37;;
9214;SDS011;4642;51.364;6.788;2022-11-21T06:38:30;48.90;;;20.50;;
9214;SDS011;4642;51.364;6.788;2022-11-21T06:40:55;40.23;;;19.20;;
9214;SDS011;4642;51.364;6.788;2022-11-21T06:43:21;46.10;;;20.13;;
9214;SDS011;4642;51.364;6.788;2022-11-21T06:45:46;54.10;;;20.00;;
9214;SDS011;4642;51.364;6.788;2022-11-21T06:48:12;48.00;;;19.37;;
9214;SDS011;4642;51.364;6.788;2022-11-21T06:50:37;49.93;;;18.67;;
9214;SDS011;4642;51.364;6.788;2022-11-21T06:53:03;44.53;;;19.37;;
9214;SDS011;4642;51.364;6.788;2022-11-21T06:55:29;43.03;;;20.07;;
9214;SDS011;4642;51.364;6.788;2022-11-21T06:57:56;49.70;;;19.37;;
9214;SDS011;4642;51.364;6.788;2022-11-21T07:00:22;55.23;;;20.57;;
9214;SDS011;4642;51.364;6.788;2022-11-21T07:02:48;50.13;;;19.97;;
9214;SDS011;4642;51.364;6.788;2022-11-21T07:05:14;44.77;;;20.33;;
9214;SDS011;4642;51.364;6.788;2022-11-21T07:07:40;45.33;;;19.50;;
9214;SDS011;4642;51.364;6.788;2022-11-21T07:10:05;43.37;;;20.33;;
9214;SDS011;4642;51.364;6.788;2022-11-21T07:12:32;49.57;;;20.63;;
9214;SDS011;4642;51.364;6.788;2022-11-21T07:15:17;48.73;;;19.83;;
9214;SDS011;4642;51.364;6.788;2022-11-21T07:17:42;50.87;;;20.77;;
9214;SDS011;4642;51.364;6.788;2022-11-21T07:20:08;46.77;;;20.87;;
9214;SDS011;4642;51.364;6.788;2022-11-21T07:22:34;58.13;;;20.90;;
9214;SDS011;4642;51.364;6.788;2022-11-21T07:24:59;54.33;;;21.13;;
9214;SDS011;4642;51.364;6.788;2022-11-21T07:27:25;47.00;;;18.97;;
9214;SDS011;4642;51.364;6.788;2022-11-21T07:29:51;50.37;;;20.83;;
9214;SDS011;4642;51.364;6.788;2022-11-21T07:32:16;48.53;;;20.67;;
9214;SDS011;4642;51.364;6.788;2022-11-21T07:34:42;46.70;;;19.67;;
9214;SDS011;4642;51.364;6.788;2022-11-21T07:37:07;50.00;;;21.17;;
9214;SDS011;4642;51.364;6.788;2022-11-21T07:39:33;53.03;;;21.10;;
9214;SDS011;4642;51.364;6.788;2022-11-21T07:41:59;53.60;;;20.43;;
9214;SDS011;4642;51.364;6.788;2022-11-21T07:44:24;49.57;;;20.77;;
9214;SDS011;4642;51.364;6.788;2022-11-21T07:46:52;49.83;;;20.33;;
9214;SDS011;4642;51.364;6.788;2022-11-21T07:49:19;51.27;;;22.10;;
9214;SDS011;4642;51.364;6.788;2022-11-21T07:51:44;51.43;;;20.47;;
9214;SDS011;4642;51.364;6.788;2022-11-21T07:54:10;49.07;;;20.80;;
9214;SDS011;4642;51.364;6.788;2022-11-21T07:56:35;52.17;;;20.87;;
9214;SDS011;4642;51.364;6.788;2022-11-21T07:59:01;51.77;;;21.53;;
9214;SDS011;4642;51.364;6.788;2022-11-21T08:01:26;61.33;;;22.57;;
9214;SDS011;4642;51.364;6.788;2022-11-21T08:03:52;55.57;;;21.70;;
9214;SDS011;4642;51.364;6.788;2022-11-21T08:06:17;59.27;;;24.20;;
9214;SDS011;4642;51.364;6.788;2022-11-21T08:08:43;58.97;;;23.50;;
9214;SDS011;4642;51.364;6.788;2022-11-21T08:11:08;59.10;;;23.00;;
9214;SDS011;4642;51.364;6.788;2022-11-21T08:13:34;52.03;;;22.90;;
9214;SDS011;4642;51.364;6.788;2022-11-21T08:16:03;62.70;;;22.23;;
9214;SDS011;4642;51.364;6.788;2022-11-21T08:18:29;50.43;;;21.80;;
9214;SDS011;4642;51.364;6.788;2022-11-21T08:20:54;57.53;;;23.37;;
9214;SDS011;4642;51.364;6.788;2022-11-21T08:23:20;58.60;;;23.30;;
9214;SDS011;4642;51.364;6.788;2022-11-21T08:25:45;54.57;;;21.23;;
9214;SDS011;4642;51.364;6.788;2022-11-21T08:28:11;58.93;;;22.93;;
9214;SDS011;4642;51.364;6.788;2022-11-21T08:30:37;56.90;;;22.90;;
9214;SDS011;4642;51.364;6.788;2022-11-21T08:33:04;61.80;;;23.33;;
9214;SDS011;4642;51.364;6.788;2022-11-21T08:35:30;61.67;;;22.87;;
9214;SDS011;4642;51.364;6.788;2022-11-21T08:37:56;56.00;;;22.20;;
9214;SDS011;4642;51.364;6.788;2022-11-21T08:40:25;52.20;;;22.70;;
9214;SDS011;4642;51.364;6.788;2022-11-21T08:42:58;58.73;;;22.53;;
9214;SDS011;4642;51.364;6.788;2022-11-21T08:45:28;54.73;;;21.93;;
9214;SDS011;4642;51.364;6.788;2022-11-21T08:47:55;57.80;;;21.77;;
9214;SDS011;4642;51.364;6.788;2022-11-21T08:50:21;62.77;;;22.17;;
9214;SDS011;4642;51.364;6.788;2022-11-21T08:52:47;56.63;;;21.17;;
9214;SDS011;4642;51.364;6.788;2022-11-21T08:55:12;62.83;;;21.63;;
9214;SDS011;4642;51.364;6.788;2022-11-21T08:57:38;51.73;;;21.70;;
9214;SDS011;4642;51.364;6.788;2022-11-21T09:00:05;54.63;;;21.30;;
9214;SDS011;4642;51.364;6.788;2022-11-21T09:02:31;58.83;;;22.27;;
9214;SDS011;4642;51.364;6.788;2022-11-21T09:04:57;56.23;;;22.17;;
9214;SDS011;4642;51.364;6.788;2022-11-21T09:07:23;49.17;;;20.57;;
9214;SDS011;4642;51.364;6.788;2022-11-21T09:09:49;51.87;;;20.70;;
9214;SDS011;4642;51.364;6.788;2022-11-21T09:12:14;52.83;;;20.83;;
9214;SDS011;4642;51.364;6.788;2022-11-21T09:14:40;46.47;;;21.00;;
9214;SDS011;4642;51.364;6.788;2022-11-21T09:17:24;48.17;;;20.60;;
9214;SDS011;4642;51.364;6.788;2022-11-21T09:20:08;46.27;;;19.67;;
9214;SDS011;4642;51.364;6.788;2022-11-21T09:22:34;51.93;;;21.67;;
9214;SDS011;4642;51.364;6.788;2022-11-21T09:24:59;45.93;;;20.37;;
9214;SDS011;4642;51.364;6.788;2022-11-21T09:27:25;45.47;;;20.57;;
9214;SDS011;4642;51.364;6.788;2022-11-21T09:29:51;50.10;;;20.17;;
9214;SDS011;4642;51.364;6.788;2022-11-21T09:32:16;46.73;;;20.63;;
9214;SDS011;4642;51.364;6.788;2022-11-21T09:34:42;42.00;;;19.47;;
9214;SDS011;4642;51.364;6.788;2022-11-21T09:37:07;50.10;;;19.13;;
9214;SDS011;4642;51.364;6.788;2022-11-21T09:39:33;37.63;;;19.00;;
9214;SDS011;4642;51.364;6.788;2022-11-21T09:47:29;32.57;;;17.77;;
9214;SDS011;4642;51.364;6.788;2022-11-21T09:57:47;28.00;;;14.40;;
9214;SDS011;4642;51.364;6.788;2022-11-21T10:00:20;25.23;;;15.43;;
9214;SDS011;4642;51.364;6.788;2022-11-21T10:02:48;30.47;;;14.63;;
9214;SDS011;4642;51.364;6.788;2022-11-21T10:05:33;22.57;;;13.93;;
9214;SDS011;4642;51.364;6.788;2022-11-21T10:10:52;26.33;;;14.73;;
9214;SDS011;4642;51.364;6.788;2022-11-21T10:16:08;20.80;;;13.33;;
9214;SDS011;4642;51.364;6.788;2022-11-21T10:24:39;22.63;;;12.50;;
9214;SDS011;4642;51.364;6.788;2022-11-21T10:27:18;20.73;;;12.93;;
9214;SDS011;4642;51.364;6.788;2022-11-21T10:29:58;25.47;;;12.83;;
9214;SDS011;4642;51.364;6.788;2022-11-21T10:32:55;17.83;;;12.53;;
9214;SDS011;4642;51.364;6.788;2022-11-21T10:38:10;22.40;;;13.50;;
9214;SDS011;4642;51.364;6.788;2022-11-21T10:40:48;17.47;;;12.37;;
9214;SDS011;4642;51.364;6.788;2022-11-21T10:43:22;25.60;;;12.67;;
9214;SDS011;4642;51.364;6.788;2022-11-21T10:46:31;18.13;;;11.23;;
9214;SDS011;4642;51.364;6.788;2022-11-21T10:49:01;21.07;;;12.13;;
9214;SDS011;4642;51.364;6.788;2022-11-21T10:51:33;21.13;;;11.77;;
9214;SDS011;4642;51.364;6.788;2022-11-21T10:54:19;23.27;;;12.07;;
9214;SDS011;4642;51.364;6.788;2022-11-21T10:56:58;24.13;;;12.00;;
9214;SDS011;4642;51.364;6.788;2022-11-21T10:59:35;21.23;;;11.83;;
9214;SDS011;4642;51.364;6.788;2022-11-21T11:02:09;26.00;;;11.60;;
9214;SDS011;4642;51.364;6.788;2022-11-21T11:04:47;25.30;;;10.43;;
9214;SDS011;4642;51.364;6.788;2022-11-21T11:07:23;23.40;;;10.73;;
9214;SDS011;4642;51.364;6.788;2022-11-21T11:09:51;25.30;;;10.50;;
9214;SDS011;4642;51.364;6.788;2022-11-21T11:12:22;18.33;;;9.93;;
9214;SDS011;4642;51.364;6.788;2022-11-21T11:14:52;19.67;;;9.90;;
9214;SDS011;4642;51.364;6.788;2022-11-21T11:17:30;23.63;;;8.70;;
9214;SDS011;4642;51.364;6.788;2022-11-21T11:19:58;17.63;;;8.77;;
9214;SDS011;4642;51.364;6.788;2022-11-21T11:22:47;13.83;;;8.30;;
9214;SDS011;4642;51.364;6.788;2022-11-21T11:25:13;19.57;;;9.07;;
9214;SDS011;4642;51.364;6.788;2022-11-21T11:27:39;17.33;;;9.03;;
9214;SDS011;4642;51.364;6.788;2022-11-21T11:30:05;16.13;;;8.80;;
9214;SDS011;4642;51.364;6.788;2022-11-21T11:32:31;19.20;;;9.40;;
9214;SDS011;4642;51.364;6.788;2022-11-21T11:37:37;15.87;;;9.30;;
9214;SDS011;4642;51.364;6.788;2022-11-21T11:40:16;13.70;;;8.07;;
9214;SDS011;4642;51.364;6.788;2022-11-21T11:49:13;17.63;;;8.23;;
9214;SDS011;4642;51.364;6.788;2022-11-21T11:51:50;15.97;;;8.13;;
9214;SDS011;4642;51.364;6.788;2022-11-21T11:54:23;18.40;;;7.80;;
9214;SDS011;4642;51.364;6.788;2022-11-21T11:56:53;15.30;;;8.40;;
9214;SDS011;4642;51.364;6.788;2022-11-21T11:59:55;17.17;;;7.07;;
9214;SDS011;4642;51.364;6.788;2022-11-21T12:02:16;17.83;;;7.90;;
9214;SDS011;4642;51.364;6.788;2022-11-21T12:04:52;15.73;;;8.10;;
9214;SDS011;4642;51.364;6.788;2022-11-21T12:07:37;16.10;;;7.90;;
9214;SDS011;4642;51.364;6.788;2022-11-21T12:10:28;13.10;;;7.10;;
9214;SDS011;4642;51.364;6.788;2022-11-21T12:13:26;14.47;;;6.40;;
9214;SDS011;4642;51.364;6.788;2022-11-21T12:18:31;13.73;;;6.47;;
9214;SDS011;4642;51.364;6.788;2022-11-21T12:21:15;15.50;;;6.17;;
9214;SDS011;4642;51.364;6.788;2022-11-21T12:23:48;15.33;;;5.73;;
9214;SDS011;4642;51.364;6.788;2022-11-21T12:29:14;9.80;;;4.50;;
9214;SDS011;4642;51.364;6.788;2022-11-21T12:50:51;11.37;;;5.03;;
9214;SDS011;4642;51.364;6.788;2022-11-21T12:53:59;9.70;;;4.47;;
9214;SDS011;4642;51.364;6.788;2022-11-21T12:56:53;9.40;;;5.30;;
9214;SDS011;4642;51.364;6.788;2022-11-21T12:59:45;14.87;;;5.30;;
9214;SDS011;4642;51.364;6.788;2022-11-21T13:04:56;12.70;;;5.80;;
9214;SDS011;4642;51.364;6.788;2022-11-21T13:07:24;8.07;;;5.07;;
9214;SDS011;4642;51.364;6.788;2022-11-21T13:09:54;12.40;;;5.80;;
9214;SDS011;4642;51.364;6.788;2022-11-21T13:12:29;11.63;;;5.33;;
9214;SDS011;4642;51.364;6.788;2022-11-21T13:20:46;12.33;;;4.90;;
9214;SDS011;4642;51.364;6.788;2022-11-21T13:26:01;8.17;;;4.90;;
9214;SDS011;4642;51.364;6.788;2022-11-21T13:28:31;9.83;;;5.13;;
9214;SDS011;4642;51.364;6.788;2022-11-21T13:30:58;10.30;;;4.80;;
9214;SDS011;4642;51.364;6.788;2022-11-21T13:49:26;11.00;;;3.90;;
9214;SDS011;4642;51.364;6.788;2022-11-21T13:58:07;12.97;;;3.97;;
9214;SDS011;4642;51.364;6.788;2022-11-21T14:00:53;8.03;;;3.50;;
9214;SDS011;4642;51.364;6.788;2022-11-21T14:03:31;11.03;;;3.60;;
9214;SDS011;4642;51.364;6.788;2022-11-21T14:06:20;11.00;;;3.77;;
9214;SDS011;4642;51.364;6.788;2022-11-21T14:09:04;10.87;;;3.13;;
9214;SDS011;4642;51.364;6.788;2022-11-21T14:11:43;6.40;;;3.00;;
9214;SDS011;4642;51.364;6.788;2022-11-21T14:14:25;7.07;;;3.80;;
9214;SDS011;4642;51.364;6.788;2022-11-21T14:19:53;9.43;;;3.27;;
9214;SDS011;4642;51.364;6.788;2022-11-21T14:22:27;7.17;;;3.37;;
9214;SDS011;4642;51.364;6.788;2022-11-21T14:24:59;9.17;;;2.63;;
9214;SDS011;4642;51.364;6.788;2022-11-21T14:27:30;8.20;;;3.37;;
9214;SDS011;4642;51.364;6.788;2022-11-21T14:29:57;9.77;;;3.23;;
9214;SDS011;4642;51.364;6.788;2022-11-21T14:32:29;6.10;;;3.43;;
9214;SDS011;4642;51.364;6.788;2022-11-21T14:35:08;6.47;;;2.70;;
9214;SDS011;4642;51.364;6.788;2022-11-21T14:37:44;6.10;;;3.07;;
9214;SDS011;4642;51.364;6.788;2022-11-21T14:40:11;10.03;;;3.60;;
9214;SDS011;4642;51.364;6.788;2022-11-21T14:42:38;7.80;;;3.50;;
9214;SDS011;4642;51.364;6.788;2022-11-21T14:45:15;5.97;;;3.90;;
9214;SDS011;4642;51.364;6.788;2022-11-21T14:47:51;7.30;;;3.33;;
9214;SDS011;4642;51.364;6.788;2022-11-21T14:50:21;8.37;;;3.80;;
9214;SDS011;4642;51.364;6.788;2022-11-21T14:52:58;6.13;;;2.90;;
9214;SDS011;4642;51.364;6.788;2022-11-21T14:55:29;3.90;;;2.30;;
9214;SDS011;4642;51.364;6.788;2022-11-21T14:57:56;5.63;;;2.50;;
9214;SDS011;4642;51.364;6.788;2022-11-21T15:00:28;3.93;;;2.10;;
9214;SDS011;4642;51.364;6.788;2022-11-21T15:02:55;7.57;;;2.10;;
9214;SDS011;4642;51.364;6.788;2022-11-21T15:05:29;2.90;;;2.00;;
9214;SDS011;4642;51.364;6.788;2022-11-21T15:07:56;2.80;;;1.70;;
9214;SDS011;4642;51.364;6.788;2022-11-21T15:10:24;4.17;;;2.30;;
9214;SDS011;4642;51.364;6.788;2022-11-21T15:13:08;5.10;;;1.53;;
9214;SDS011;4642;51.364;6.788;2022-11-21T15:15:43;6.27;;;2.20;;
9214;SDS011;4642;51.364;6.788;2022-11-21T15:18:14;3.73;;;1.50;;
9214;SDS011;4642;51.364;6.788;2022-11-21T15:20:48;3.77;;;2.07;;
9214;SDS011;4642;51.364;6.788;2022-11-21T15:23:24;4.37;;;1.77;;
9214;SDS011;4642;51.364;6.788;2022-11-21T15:25:50;3.67;;;1.87;;
9214;SDS011;4642;51.364;6.788;2022-11-21T15:28:16;1.93;;;1.47;;
9214;SDS011;4642;51.364;6.788;2022-11-21T15:30:42;3.87;;;1.67;;
9214;SDS011;4642;51.364;6.788;2022-11-21T15:36:26;7.53;;;1.63;;
9214;SDS011;4642;51.364;6.788;2022-11-21T15:38:40;1.90;;;1.20;;
9214;SDS011;4642;51.364;6.788;2022-11-21T15:43:43;2.83;;;1.20;;
9214;SDS011;4642;51.364;6.788;2022-11-21T15:46:17;1.87;;;1.17;;
9214;SDS011;4642;51.364;6.788;2022-11-21T15:48:57;2.30;;;1.23;;
9214;SDS011;4642;51.364;6.788;2022-11-21T15:51:24;6.47;;;1.30;;
9214;SDS011;4642;51.364;6.788;2022-11-21T15:54:00;5.50;;;1.43;;
9214;SDS011;4642;51.364;6.788;2022-11-21T15:56:27;3.10;;;1.43;;
9214;SDS011;4642;51.364;6.788;2022-11-21T15:58:53;3.27;;;1.13;;
9214;SDS011;4642;51.364;6.788;2022-11-21T16:01:19;6.90;;;1.30;;
9214;SDS011;4642;51.364;6.788;2022-11-21T16:03:50;2.97;;;0.93;;
9214;SDS011;4642;51.364;6.788;2022-11-21T16:06:17;2.10;;;1.10;;
9214;SDS011;4642;51.364;6.788;2022-11-21T16:08:44;2.63;;;1.20;;
9214;SDS011;4642;51.364;6.788;2022-11-21T16:11:17;3.37;;;1.17;;
9214;SDS011;4642;51.364;6.788;2022-11-21T16:13:47;2.30;;;0.93;;
9214;SDS011;4642;51.364;6.788;2022-11-21T16:16:13;4.47;;;1.40;;
9214;SDS011;4642;51.364;6.788;2022-11-21T16:18:39;2.83;;;1.03;;
9214;SDS011;4642;51.364;6.788;2022-11-21T16:21:05;3.87;;;1.47;;
9214;SDS011;4642;51.364;6.788;2022-11-21T16:23:32;2.50;;;1.03;;
9214;SDS011;4642;51.364;6.788;2022-11-21T16:25:57;3.23;;;1.07;;
9214;SDS011;4642;51.364;6.788;2022-11-21T16:28:23;3.20;;;1.10;;
9214;SDS011;4642;51.364;6.788;2022-11-21T16:30:48;2.30;;;0.80;;
9214;SDS011;4642;51.364;6.788;2022-11-21T16:33:14;3.23;;;1.27;;
9214;SDS011;4642;51.364;6.788;2022-11-21T16:35:39;1.80;;;1.07;;
9214;SDS011;4642;51.364;6.788;2022-11-21T16:38:11;6.43;;;1.40;;
9214;SDS011;4642;51.364;6.788;2022-11-21T16:40:37;3.53;;;1.00;;
9214;SDS011;4642;51.364;6.788;2022-11-21T16:43:07;2.93;;;1.23;;
9214;SDS011;4642;51.364;6.788;2022-11-21T16:45:34;2.40;;;1.10;;
9214;SDS011;4642;51.364;6.788;2022-11-21T16:48:00;2.83;;;1.10;;
9214;SDS011;4642;51.364;6.788;2022-11-21T16:50:25;1.60;;;1.10;;
9214;SDS011;4642;51.364;6.788;2022-11-21T16:52:51;3.63;;;1.13;;
9214;SDS011;4642;51.364;6.788;2022-11-21T16:55:17;3.53;;;1.37;;
9214;SDS011;4642;51.364;6.788;2022-11-21T16:57:42;3.67;;;1.03;;
9214;SDS011;4642;51.364;6.788;2022-11-21T17:00:08;3.97;;;1.23;;
9214;SDS011;4642;51.364;6.788;2022-11-21T17:02:36;4.60;;;1.07;;
9214;SDS011;4642;51.364;6.788;2022-11-21T17:05:02;2.87;;;1.17;;
9214;SDS011;4642;51.364;6.788;2022-11-21T17:07:32;6.13;;;1.63;;
9214;SDS011;4642;51.364;6.788;2022-11-21T17:09:58;4.90;;;1.80;;
9214;SDS011;4642;51.364;6.788;2022-11-21T17:12:24;3.43;;;1.30;;